Cortez, CO

3:37 PM MST on December 02, 2016 (GMT -0700)
Indian Camp Ranch | | Change Station

Elev 6237 ft 37.35 °N, 108.64 °W | Updated 5 seconds ago

Overcast
Overcast
37.4 °F
Feels Like 37 °F
N
1.3
Wind Variable Wind from West
Gusts 2.5 mph

Today
High -- | Low -- °F
--% Chance of Precip.
Yesterday
High -- | Low -- °F
Precip. -- in
Pressure 30.02 in
Visibility 10.0 miles
Clouds Mostly Cloudy 8000 ft
Overcast 12000 ft
Windchill 37 °F
Dew Point 22 °F
Humidity 54%
Rainfall 0.00 in
Snow Depth Not available.
7:11 AM 4:56 PM
Waxing Crescent, 11% visible
METAR KCEZ 022153Z AUTO 20010KT 10SM BKN080 OVC120 02/M05 A2998 RMK AO2 SLP165 T00221050
Pressure 30.02 in
Visibility 10.0 miles
Clouds Mostly Cloudy 8000 ft
Overcast 12000 ft
Windchill 37 °F
Dew Point 22 °F
Humidity 54%
Rainfall 0.00 in
Snow Depth Not available.
7:11 AM 4:56 PM
Waxing Crescent, 11% visible
METAR KCEZ 022153Z AUTO 20010KT 10SM BKN080 OVC120 02/M05 A2998 RMK AO2 SLP165 T00221050

10-Day Weather Forecast

Almanac

Astronomy

Dec. 02, 2016 Rise Set
Actual Time
Civil Twilight
Nautical Twilight
Astronomical Twilight
Moon
Length of Visible Light
Length of Day
Tomorrow will be .
, % of the Moon is Illuminated

Today's Extremes

State Highs State Lows

Community

WunderPhotos

Upload Photos

1,955,376 photos uploaded!

WunderBlog® & News

Nearby

Air Quality

  Air Quality AQ Index Pollutant
Not available.

Snow Depth

Station Depth Elevation

Earthquake Activity

City Distance Mag. Time & Date
Minimum magnitude displayed is 2.5.

Coastal Water Temperatures

Place Temperature

Stations

Nearby Weather Stations

Station Location Temp. Windchill Dew Point Humidity Wind Precip. Elev Updated Type
                   

Watches & Warnings

There are currently no watches in effect.